sensor_id;sensor_type;location;lat;lon;timestamp;P1;durP1;ratioP1;P2;durP2;ratioP2
7887;SDS011;3989;48.810;9.208;2023-05-14T00:00:59;12.53;;;11.47;;
7887;SDS011;3989;48.810;9.208;2023-05-14T00:03:26;12.57;;;11.23;;
7887;SDS011;3989;48.810;9.208;2023-05-14T00:05:54;13.33;;;12.13;;
7887;SDS011;3989;48.810;9.208;2023-05-14T00:08:20;13.00;;;11.73;;
7887;SDS011;3989;48.810;9.208;2023-05-14T00:10:47;13.20;;;11.90;;
7887;SDS011;3989;48.810;9.208;2023-05-14T00:13:13;12.93;;;11.73;;
7887;SDS011;3989;48.810;9.208;2023-05-14T00:15:40;13.73;;;12.33;;
7887;SDS011;3989;48.810;9.208;2023-05-14T00:18:07;13.17;;;11.87;;
7887;SDS011;3989;48.810;9.208;2023-05-14T00:20:36;14.87;;;13.37;;
7887;SDS011;3989;48.810;9.208;2023-05-14T00:23:04;15.73;;;14.10;;
7887;SDS011;3989;48.810;9.208;2023-05-14T00:25:30;14.53;;;13.13;;
7887;SDS011;3989;48.810;9.208;2023-05-14T00:27:57;14.23;;;12.73;;
7887;SDS011;3989;48.810;9.208;2023-05-14T00:30:24;17.40;;;12.80;;
7887;SDS011;3989;48.810;9.208;2023-05-14T00:32:50;14.60;;;13.40;;
7887;SDS011;3989;48.810;9.208;2023-05-14T00:35:17;14.03;;;12.73;;
7887;SDS011;3989;48.810;9.208;2023-05-14T00:37:45;14.90;;;13.57;;
7887;SDS011;3989;48.810;9.208;2023-05-14T00:40:13;14.10;;;12.70;;
7887;SDS011;3989;48.810;9.208;2023-05-14T00:42:40;13.03;;;11.93;;
7887;SDS011;3989;48.810;9.208;2023-05-14T00:45:07;13.50;;;12.20;;
7887;SDS011;3989;48.810;9.208;2023-05-14T00:47:34;13.17;;;12.07;;
7887;SDS011;3989;48.810;9.208;2023-05-14T00:50:03;14.23;;;12.93;;
7887;SDS011;3989;48.810;9.208;2023-05-14T00:52:30;14.60;;;13.13;;
7887;SDS011;3989;48.810;9.208;2023-05-14T00:54:57;14.60;;;13.30;;
7887;SDS011;3989;48.810;9.208;2023-05-14T00:57:25;13.93;;;12.73;;
7887;SDS011;3989;48.810;9.208;2023-05-14T00:59:52;14.53;;;13.07;;
7887;SDS011;3989;48.810;9.208;2023-05-14T01:02:19;14.27;;;12.83;;
7887;SDS011;3989;48.810;9.208;2023-05-14T01:04:46;14.37;;;12.83;;
7887;SDS011;3989;48.810;9.208;2023-05-14T01:07:15;13.80;;;12.47;;
7887;SDS011;3989;48.810;9.208;2023-05-14T01:09:52;14.07;;;12.73;;
7887;SDS011;3989;48.810;9.208;2023-05-14T01:12:28;15.40;;;13.80;;
7887;SDS011;3989;48.810;9.208;2023-05-14T01:15:03;15.67;;;14.07;;
7887;SDS011;3989;48.810;9.208;2023-05-14T01:17:38;14.57;;;13.00;;
7887;SDS011;3989;48.810;9.208;2023-05-14T01:20:08;15.47;;;13.90;;
7887;SDS011;3989;48.810;9.208;2023-05-14T01:22:36;14.47;;;13.17;;
7887;SDS011;3989;48.810;9.208;2023-05-14T01:25:03;14.73;;;13.43;;
7887;SDS011;3989;48.810;9.208;2023-05-14T01:27:33;15.10;;;13.40;;
7887;SDS011;3989;48.810;9.208;2023-05-14T01:30:06;15.67;;;14.20;;
7887;SDS011;3989;48.810;9.208;2023-05-14T01:32:38;15.93;;;14.33;;
7887;SDS011;3989;48.810;9.208;2023-05-14T01:35:07;15.97;;;14.33;;
7887;SDS011;3989;48.810;9.208;2023-05-14T01:37:36;15.33;;;13.93;;
7887;SDS011;3989;48.810;9.208;2023-05-14T01:40:05;16.13;;;14.63;;
7887;SDS011;3989;48.810;9.208;2023-05-14T01:42:33;16.07;;;14.37;;
7887;SDS011;3989;48.810;9.208;2023-05-14T01:45:00;15.67;;;14.20;;
7887;SDS011;3989;48.810;9.208;2023-05-14T01:47:27;18.17;;;16.20;;
7887;SDS011;3989;48.810;9.208;2023-05-14T01:49:54;17.27;;;15.47;;
7887;SDS011;3989;48.810;9.208;2023-05-14T01:52:21;16.80;;;15.00;;
7887;SDS011;3989;48.810;9.208;2023-05-14T01:54:49;17.13;;;15.27;;
7887;SDS011;3989;48.810;9.208;2023-05-14T01:57:15;16.57;;;14.67;;
7887;SDS011;3989;48.810;9.208;2023-05-14T01:59:42;18.20;;;15.67;;
7887;SDS011;3989;48.810;9.208;2023-05-14T02:02:08;16.63;;;14.93;;
7887;SDS011;3989;48.810;9.208;2023-05-14T02:04:35;16.10;;;14.40;;
7887;SDS011;3989;48.810;9.208;2023-05-14T02:07:01;17.87;;;15.87;;
7887;SDS011;3989;48.810;9.208;2023-05-14T02:09:28;17.97;;;16.07;;
7887;SDS011;3989;48.810;9.208;2023-05-14T02:11:56;17.47;;;15.23;;
7887;SDS011;3989;48.810;9.208;2023-05-14T02:14:22;16.40;;;14.57;;
7887;SDS011;3989;48.810;9.208;2023-05-14T02:16:49;17.27;;;14.97;;
7887;SDS011;3989;48.810;9.208;2023-05-14T02:19:16;22.83;;;16.10;;
7887;SDS011;3989;48.810;9.208;2023-05-14T02:21:42;23.60;;;17.87;;
7887;SDS011;3989;48.810;9.208;2023-05-14T02:24:09;18.10;;;16.27;;
7887;SDS011;3989;48.810;9.208;2023-05-14T02:26:35;20.03;;;16.03;;
7887;SDS011;3989;48.810;9.208;2023-05-14T02:29:03;20.90;;;16.77;;
7887;SDS011;3989;48.810;9.208;2023-05-14T02:31:30;18.20;;;16.17;;
7887;SDS011;3989;48.810;9.208;2023-05-14T02:33:57;17.60;;;15.10;;
7887;SDS011;3989;48.810;9.208;2023-05-14T02:36:23;19.13;;;16.87;;
7887;SDS011;3989;48.810;9.208;2023-05-14T02:38:50;21.33;;;17.07;;
7887;SDS011;3989;48.810;9.208;2023-05-14T02:41:16;19.20;;;17.00;;
7887;SDS011;3989;48.810;9.208;2023-05-14T02:43:43;22.10;;;15.70;;
7887;SDS011;3989;48.810;9.208;2023-05-14T02:46:11;19.20;;;15.90;;
7887;SDS011;3989;48.810;9.208;2023-05-14T02:48:38;18.63;;;15.50;;
7887;SDS011;3989;48.810;9.208;2023-05-14T02:51:04;18.50;;;16.50;;
7887;SDS011;3989;48.810;9.208;2023-05-14T02:53:31;20.43;;;17.00;;
7887;SDS011;3989;48.810;9.208;2023-05-14T02:55:58;19.70;;;16.60;;
7887;SDS011;3989;48.810;9.208;2023-05-14T02:58:24;20.87;;;15.87;;
7887;SDS011;3989;48.810;9.208;2023-05-14T03:00:51;16.40;;;14.70;;
7887;SDS011;3989;48.810;9.208;2023-05-14T03:03:19;16.97;;;15.03;;
7887;SDS011;3989;48.810;9.208;2023-05-14T03:05:46;15.83;;;14.23;;
7887;SDS011;3989;48.810;9.208;2023-05-14T03:08:12;17.33;;;14.70;;
7887;SDS011;3989;48.810;9.208;2023-05-14T03:10:39;16.97;;;15.17;;
7887;SDS011;3989;48.810;9.208;2023-05-14T03:13:05;17.17;;;14.57;;
7887;SDS011;3989;48.810;9.208;2023-05-14T03:15:32;16.30;;;14.77;;
7887;SDS011;3989;48.810;9.208;2023-05-14T03:17:58;15.27;;;13.77;;
7887;SDS011;3989;48.810;9.208;2023-05-14T03:20:26;14.43;;;13.00;;
7887;SDS011;3989;48.810;9.208;2023-05-14T03:22:53;14.43;;;13.03;;
7887;SDS011;3989;48.810;9.208;2023-05-14T03:25:20;13.87;;;12.57;;
7887;SDS011;3989;48.810;9.208;2023-05-14T03:27:46;13.70;;;12.30;;
7887;SDS011;3989;48.810;9.208;2023-05-14T03:30:13;13.50;;;12.17;;
7887;SDS011;3989;48.810;9.208;2023-05-14T03:32:40;13.67;;;12.27;;
7887;SDS011;3989;48.810;9.208;2023-05-14T03:35:07;13.53;;;11.67;;
7887;SDS011;3989;48.810;9.208;2023-05-14T03:37:35;12.83;;;11.53;;
7887;SDS011;3989;48.810;9.208;2023-05-14T03:40:02;13.33;;;11.93;;
7887;SDS011;3989;48.810;9.208;2023-05-14T03:42:29;11.77;;;10.80;;
7887;SDS011;3989;48.810;9.208;2023-05-14T03:44:55;11.47;;;10.47;;
7887;SDS011;3989;48.810;9.208;2023-05-14T03:47:22;10.80;;;9.80;;
7887;SDS011;3989;48.810;9.208;2023-05-14T03:49:48;11.33;;;10.33;;
7887;SDS011;3989;48.810;9.208;2023-05-14T03:52:15;12.33;;;11.10;;
7887;SDS011;3989;48.810;9.208;2023-05-14T03:54:43;10.83;;;9.73;;
7887;SDS011;3989;48.810;9.208;2023-05-14T03:57:10;10.27;;;9.37;;
7887;SDS011;3989;48.810;9.208;2023-05-14T03:59:36;10.90;;;9.67;;
7887;SDS011;3989;48.810;9.208;2023-05-14T04:02:03;10.27;;;9.33;;
7887;SDS011;3989;48.810;9.208;2023-05-14T04:04:29;9.93;;;9.03;;
7887;SDS011;3989;48.810;9.208;2023-05-14T04:06:56;10.70;;;9.70;;
7887;SDS011;3989;48.810;9.208;2023-05-14T04:09:23;10.50;;;9.30;;
7887;SDS011;3989;48.810;9.208;2023-05-14T04:11:50;9.43;;;8.53;;
7887;SDS011;3989;48.810;9.208;2023-05-14T04:14:17;9.40;;;8.40;;
7887;SDS011;3989;48.810;9.208;2023-05-14T04:16:44;10.20;;;9.20;;
7887;SDS011;3989;48.810;9.208;2023-05-14T04:19:10;9.37;;;8.50;;
7887;SDS011;3989;48.810;9.208;2023-05-14T04:21:37;10.20;;;9.17;;
7887;SDS011;3989;48.810;9.208;2023-05-14T04:24:04;9.27;;;8.47;;
7887;SDS011;3989;48.810;9.208;2023-05-14T04:26:31;10.37;;;9.10;;
7887;SDS011;3989;48.810;9.208;2023-05-14T04:29:00;10.07;;;9.17;;
7887;SDS011;3989;48.810;9.208;2023-05-14T04:31:27;9.10;;;8.30;;
7887;SDS011;3989;48.810;9.208;2023-05-14T04:33:54;8.70;;;7.90;;
7887;SDS011;3989;48.810;9.208;2023-05-14T04:36:20;9.20;;;8.40;;
7887;SDS011;3989;48.810;9.208;2023-05-14T04:38:47;8.90;;;8.20;;
7887;SDS011;3989;48.810;9.208;2023-05-14T04:41:13;9.83;;;8.93;;
7887;SDS011;3989;48.810;9.208;2023-05-14T04:43:40;8.30;;;7.63;;
7887;SDS011;3989;48.810;9.208;2023-05-14T04:46:08;9.37;;;8.50;;
7887;SDS011;3989;48.810;9.208;2023-05-14T04:48:34;11.30;;;8.57;;
7887;SDS011;3989;48.810;9.208;2023-05-14T04:51:01;9.37;;;8.60;;
7887;SDS011;3989;48.810;9.208;2023-05-14T04:53:27;8.87;;;8.07;;
7887;SDS011;3989;48.810;9.208;2023-05-14T04:55:54;9.23;;;8.33;;
7887;SDS011;3989;48.810;9.208;2023-05-14T04:58:21;9.50;;;8.60;;
7887;SDS011;3989;48.810;9.208;2023-05-14T05:00:48;8.53;;;7.80;;
7887;SDS011;3989;48.810;9.208;2023-05-14T05:03:16;8.77;;;8.03;;
7887;SDS011;3989;48.810;9.208;2023-05-14T05:05:43;9.17;;;8.27;;
7887;SDS011;3989;48.810;9.208;2023-05-14T05:08:10;8.57;;;7.83;;
7887;SDS011;3989;48.810;9.208;2023-05-14T05:10:37;9.30;;;8.37;;
7887;SDS011;3989;48.810;9.208;2023-05-14T05:13:03;8.47;;;7.83;;
7887;SDS011;3989;48.810;9.208;2023-05-14T05:15:30;8.30;;;7.60;;
7887;SDS011;3989;48.810;9.208;2023-05-14T05:17:56;8.43;;;7.73;;
7887;SDS011;3989;48.810;9.208;2023-05-14T05:20:24;10.30;;;8.17;;
7887;SDS011;3989;48.810;9.208;2023-05-14T05:22:52;8.83;;;8.03;;
7887;SDS011;3989;48.810;9.208;2023-05-14T05:25:18;8.73;;;8.03;;
7887;SDS011;3989;48.810;9.208;2023-05-14T05:27:45;9.80;;;8.87;;
7887;SDS011;3989;48.810;9.208;2023-05-14T05:30:12;8.23;;;7.53;;
7887;SDS011;3989;48.810;9.208;2023-05-14T05:32:38;9.10;;;8.27;;
7887;SDS011;3989;48.810;9.208;2023-05-14T05:35:05;8.97;;;8.17;;
7887;SDS011;3989;48.810;9.208;2023-05-14T05:37:33;8.47;;;7.77;;
7887;SDS011;3989;48.810;9.208;2023-05-14T05:40:00;8.70;;;7.93;;
7887;SDS011;3989;48.810;9.208;2023-05-14T05:42:28;9.03;;;8.23;;
7887;SDS011;3989;48.810;9.208;2023-05-14T05:44:54;9.00;;;8.10;;
7887;SDS011;3989;48.810;9.208;2023-05-14T05:47:21;8.23;;;7.60;;
7887;SDS011;3989;48.810;9.208;2023-05-14T05:49:47;8.77;;;8.07;;
7887;SDS011;3989;48.810;9.208;2023-05-14T05:52:14;7.70;;;7.20;;
7887;SDS011;3989;48.810;9.208;2023-05-14T05:54:42;8.00;;;7.40;;
7887;SDS011;3989;48.810;9.208;2023-05-14T05:57:09;7.53;;;6.93;;
7887;SDS011;3989;48.810;9.208;2023-05-14T05:59:36;8.70;;;7.53;;
7887;SDS011;3989;48.810;9.208;2023-05-14T06:02:02;8.20;;;7.60;;
7887;SDS011;3989;48.810;9.208;2023-05-14T06:04:29;7.93;;;7.33;;
7887;SDS011;3989;48.810;9.208;2023-05-14T06:06:56;7.97;;;7.17;;
7887;SDS011;3989;48.810;9.208;2023-05-14T06:09:23;8.07;;;7.10;;
7887;SDS011;3989;48.810;9.208;2023-05-14T06:11:50;7.17;;;6.67;;
7887;SDS011;3989;48.810;9.208;2023-05-14T06:14:17;6.73;;;6.23;;
7887;SDS011;3989;48.810;9.208;2023-05-14T06:16:43;7.73;;;7.03;;
7887;SDS011;3989;48.810;9.208;2023-05-14T06:19:10;7.57;;;7.00;;
7887;SDS011;3989;48.810;9.208;2023-05-14T06:21:36;7.87;;;7.10;;
7887;SDS011;3989;48.810;9.208;2023-05-14T06:24:03;7.50;;;6.90;;
7887;SDS011;3989;48.810;9.208;2023-05-14T06:26:30;7.80;;;7.00;;
7887;SDS011;3989;48.810;9.208;2023-05-14T06:28:58;7.33;;;6.63;;
7887;SDS011;3989;48.810;9.208;2023-05-14T06:31:25;8.00;;;7.20;;
7887;SDS011;3989;48.810;9.208;2023-05-14T06:33:51;7.50;;;6.87;;
7887;SDS011;3989;48.810;9.208;2023-05-14T06:36:18;8.13;;;6.53;;
7887;SDS011;3989;48.810;9.208;2023-05-14T06:38:44;7.33;;;6.83;;
7887;SDS011;3989;48.810;9.208;2023-05-14T06:41:11;7.33;;;6.73;;
7887;SDS011;3989;48.810;9.208;2023-05-14T06:43:37;6.80;;;6.30;;
7887;SDS011;3989;48.810;9.208;2023-05-14T06:46:05;7.17;;;6.67;;
7887;SDS011;3989;48.810;9.208;2023-05-14T06:48:32;7.53;;;6.93;;
7887;SDS011;3989;48.810;9.208;2023-05-14T06:50:58;7.00;;;6.47;;
7887;SDS011;3989;48.810;9.208;2023-05-14T06:53:27;7.53;;;6.93;;
7887;SDS011;3989;48.810;9.208;2023-05-14T06:55:53;7.33;;;6.73;;
7887;SDS011;3989;48.810;9.208;2023-05-14T06:58:20;8.20;;;7.50;;
7887;SDS011;3989;48.810;9.208;2023-05-14T07:00:47;7.50;;;7.00;;
7887;SDS011;3989;48.810;9.208;2023-05-14T07:03:14;7.53;;;6.97;;
7887;SDS011;3989;48.810;9.208;2023-05-14T07:05:41;7.87;;;7.27;;
7887;SDS011;3989;48.810;9.208;2023-05-14T07:08:09;8.23;;;7.43;;
7887;SDS011;3989;48.810;9.208;2023-05-14T07:10:36;8.37;;;7.60;;
7887;SDS011;3989;48.810;9.208;2023-05-14T07:13:03;8.37;;;7.57;;
7887;SDS011;3989;48.810;9.208;2023-05-14T07:15:30;8.23;;;7.53;;
7887;SDS011;3989;48.810;9.208;2023-05-14T07:17:59;7.67;;;6.97;;
7887;SDS011;3989;48.810;9.208;2023-05-14T07:20:27;7.50;;;6.90;;
7887;SDS011;3989;48.810;9.208;2023-05-14T07:22:54;7.93;;;7.17;;
7887;SDS011;3989;48.810;9.208;2023-05-14T07:25:20;7.73;;;7.03;;
7887;SDS011;3989;48.810;9.208;2023-05-14T07:27:47;8.07;;;7.47;;
7887;SDS011;3989;48.810;9.208;2023-05-14T07:30:14;7.47;;;6.73;;
7887;SDS011;3989;48.810;9.208;2023-05-14T07:32:43;7.63;;;6.83;;
7887;SDS011;3989;48.810;9.208;2023-05-14T07:35:09;7.77;;;7.17;;
7887;SDS011;3989;48.810;9.208;2023-05-14T07:37:38;8.03;;;7.33;;
7887;SDS011;3989;48.810;9.208;2023-05-14T07:40:05;8.50;;;7.70;;
7887;SDS011;3989;48.810;9.208;2023-05-14T07:42:32;8.13;;;7.43;;
7887;SDS011;3989;48.810;9.208;2023-05-14T07:44:59;7.97;;;7.27;;
7887;SDS011;3989;48.810;9.208;2023-05-14T07:47:26;8.70;;;7.07;;
7887;SDS011;3989;48.810;9.208;2023-05-14T07:49:53;7.83;;;7.13;;
7887;SDS011;3989;48.810;9.208;2023-05-14T07:52:20;6.90;;;6.40;;
7887;SDS011;3989;48.810;9.208;2023-05-14T07:54:48;8.23;;;7.53;;
7887;SDS011;3989;48.810;9.208;2023-05-14T07:57:15;7.50;;;6.80;;
7887;SDS011;3989;48.810;9.208;2023-05-14T07:59:42;8.43;;;6.93;;
7887;SDS011;3989;48.810;9.208;2023-05-14T08:02:08;7.80;;;7.10;;
7887;SDS011;3989;48.810;9.208;2023-05-14T08:04:36;7.07;;;6.47;;
7887;SDS011;3989;48.810;9.208;2023-05-14T08:07:03;7.13;;;6.47;;
7887;SDS011;3989;48.810;9.208;2023-05-14T08:09:32;6.93;;;6.25;;
7887;SDS011;3989;48.810;9.208;2023-05-14T08:12:00;6.45;;;6.05;;
7887;SDS011;3989;48.810;9.208;2023-05-14T08:14:26;6.93;;;6.43;;
7887;SDS011;3989;48.810;9.208;2023-05-14T08:16:53;7.70;;;7.00;;
7887;SDS011;3989;48.810;9.208;2023-05-14T08:19:20;7.22;;;6.68;;
7887;SDS011;3989;48.810;9.208;2023-05-14T08:21:46;6.47;;;6.03;;
7887;SDS011;3989;48.810;9.208;2023-05-14T08:24:13;7.07;;;6.57;;
7887;SDS011;3989;48.810;9.208;2023-05-14T08:26:39;8.60;;;7.90;;
7887;SDS011;3989;48.810;9.208;2023-05-14T08:29:07;7.72;;;7.10;;
7887;SDS011;3989;48.810;9.208;2023-05-14T08:31:34;7.43;;;6.88;;
7887;SDS011;3989;48.810;9.208;2023-05-14T08:34:01;8.13;;;7.53;;
7887;SDS011;3989;48.810;9.208;2023-05-14T08:36:27;8.15;;;7.35;;
7887;SDS011;3989;48.810;9.208;2023-05-14T08:38:54;7.82;;;7.13;;
7887;SDS011;3989;48.810;9.208;2023-05-14T08:41:20;7.85;;;7.25;;
7887;SDS011;3989;48.810;9.208;2023-05-14T08:43:51;8.05;;;7.45;;
7887;SDS011;3989;48.810;9.208;2023-05-14T08:46:29;8.00;;;7.40;;
7887;SDS011;3989;48.810;9.208;2023-05-14T08:48:59;8.02;;;7.43;;
7887;SDS011;3989;48.810;9.208;2023-05-14T08:51:32;7.63;;;6.88;;
7887;SDS011;3989;48.810;9.208;2023-05-14T08:54:01;7.47;;;6.95;;
7887;SDS011;3989;48.810;9.208;2023-05-14T08:56:29;10.60;;;7.38;;
7887;SDS011;3989;48.810;9.208;2023-05-14T08:58:57;8.23;;;7.57;;
7887;SDS011;3989;48.810;9.208;2023-05-14T09:01:24;9.10;;;8.35;;
7887;SDS011;3989;48.810;9.208;2023-05-14T09:03:53;7.93;;;7.32;;
7887;SDS011;3989;48.810;9.208;2023-05-14T09:06:20;8.30;;;7.60;;
7887;SDS011;3989;48.810;9.208;2023-05-14T09:08:47;8.60;;;7.90;;
7887;SDS011;3989;48.810;9.208;2023-05-14T09:11:14;8.00;;;7.25;;
7887;SDS011;3989;48.810;9.208;2023-05-14T09:13:40;8.35;;;7.70;;
7887;SDS011;3989;48.810;9.208;2023-05-14T09:16:07;7.53;;;6.97;;
7887;SDS011;3989;48.810;9.208;2023-05-14T09:18:34;7.95;;;7.35;;
7887;SDS011;3989;48.810;9.208;2023-05-14T09:21:02;7.53;;;7.00;;
7887;SDS011;3989;48.810;9.208;2023-05-14T09:23:30;8.02;;;7.43;;
7887;SDS011;3989;48.810;9.208;2023-05-14T09:26:02;7.97;;;7.38;;
7887;SDS011;3989;48.810;9.208;2023-05-14T09:28:29;8.60;;;7.90;;
7887;SDS011;3989;48.810;9.208;2023-05-14T09:30:56;8.77;;;8.07;;
7887;SDS011;3989;48.810;9.208;2023-05-14T09:33:26;8.85;;;8.15;;
7887;SDS011;3989;48.810;9.208;2023-05-14T09:35:54;9.38;;;8.48;;
7887;SDS011;3989;48.810;9.208;2023-05-14T09:38:28;8.85;;;8.05;;
7887;SDS011;3989;48.810;9.208;2023-05-14T09:40:55;9.65;;;8.70;;
7887;SDS011;3989;48.810;9.208;2023-05-14T09:43:21;9.63;;;8.65;;
7887;SDS011;3989;48.810;9.208;2023-05-14T09:45:48;8.55;;;7.85;;
7887;SDS011;3989;48.810;9.208;2023-05-14T09:48:15;7.38;;;6.68;;
7887;SDS011;3989;48.810;9.208;2023-05-14T09:50:41;7.97;;;7.38;;
7887;SDS011;3989;48.810;9.208;2023-05-14T09:53:08;7.22;;;6.72;;
7887;SDS011;3989;48.810;9.208;2023-05-14T09:55:37;8.15;;;7.35;;
7887;SDS011;3989;48.810;9.208;2023-05-14T09:58:04;6.78;;;6.28;;
7887;SDS011;3989;48.810;9.208;2023-05-14T10:00:31;7.65;;;7.15;;
7887;SDS011;3989;48.810;9.208;2023-05-14T10:03:01;8.18;;;7.43;;
7887;SDS011;3989;48.810;9.208;2023-05-14T10:05:31;7.03;;;6.47;;
7887;SDS011;3989;48.810;9.208;2023-05-14T10:08:00;6.32;;;5.82;;
7887;SDS011;3989;48.810;9.208;2023-05-14T10:10:30;6.68;;;6.18;;
7887;SDS011;3989;48.810;9.208;2023-05-14T10:13:01;5.82;;;5.32;;
7887;SDS011;3989;48.810;9.208;2023-05-14T10:15:32;6.80;;;6.20;;
7887;SDS011;3989;48.810;9.208;2023-05-14T10:18:02;6.13;;;5.63;;
7887;SDS011;3989;48.810;9.208;2023-05-14T10:20:32;7.00;;;6.45;;
7887;SDS011;3989;48.810;9.208;2023-05-14T10:23:00;5.65;;;5.18;;
7887;SDS011;3989;48.810;9.208;2023-05-14T10:25:27;5.30;;;5.00;;
7887;SDS011;3989;48.810;9.208;2023-05-14T10:27:54;5.68;;;5.28;;
7887;SDS011;3989;48.810;9.208;2023-05-14T10:30:23;6.38;;;5.97;;
7887;SDS011;3989;48.810;9.208;2023-05-14T10:33:04;5.78;;;5.43;;
7887;SDS011;3989;48.810;9.208;2023-05-14T10:35:31;6.20;;;5.80;;
7887;SDS011;3989;48.810;9.208;2023-05-14T10:38:20;5.88;;;5.53;;
7887;SDS011;3989;48.810;9.208;2023-05-14T10:40:47;6.45;;;5.95;;
7887;SDS011;3989;48.810;9.208;2023-05-14T10:43:15;6.28;;;5.88;;
7887;SDS011;3989;48.810;9.208;2023-05-14T10:45:44;7.13;;;6.63;;
7887;SDS011;3989;48.810;9.208;2023-05-14T10:48:11;6.13;;;5.72;;
7887;SDS011;3989;48.810;9.208;2023-05-14T10:50:38;5.93;;;5.45;;
7887;SDS011;3989;48.810;9.208;2023-05-14T10:53:09;6.22;;;5.78;;
7887;SDS011;3989;48.810;9.208;2023-05-14T10:55:37;6.32;;;5.82;;
7887;SDS011;3989;48.810;9.208;2023-05-14T10:58:04;7.03;;;6.43;;
7887;SDS011;3989;48.810;9.208;2023-05-14T11:00:32;6.45;;;5.97;;
7887;SDS011;3989;48.810;9.208;2023-05-14T11:03:02;6.65;;;6.22;;
7887;SDS011;3989;48.810;9.208;2023-05-14T11:05:30;6.55;;;6.05;;
7887;SDS011;3989;48.810;9.208;2023-05-14T11:07:57;6.82;;;6.22;;
7887;SDS011;3989;48.810;9.208;2023-05-14T11:10:26;6.78;;;6.32;;
7887;SDS011;3989;48.810;9.208;2023-05-14T11:12:54;6.43;;;5.93;;
7887;SDS011;3989;48.810;9.208;2023-05-14T11:15:22;6.90;;;6.45;;
7887;SDS011;3989;48.810;9.208;2023-05-14T11:17:50;6.00;;;5.60;;
7887;SDS011;3989;48.810;9.208;2023-05-14T11:20:19;5.50;;;5.00;;
7887;SDS011;3989;48.810;9.208;2023-05-14T11:22:47;6.93;;;6.30;;
7887;SDS011;3989;48.810;9.208;2023-05-14T11:25:15;6.00;;;5.60;;
7887;SDS011;3989;48.810;9.208;2023-05-14T11:27:43;5.35;;;5.05;;
7887;SDS011;3989;48.810;9.208;2023-05-14T11:30:12;5.90;;;5.38;;
7887;SDS011;3989;48.810;9.208;2023-05-14T11:32:39;7.45;;;6.25;;
7887;SDS011;3989;48.810;9.208;2023-05-14T11:35:06;5.82;;;5.43;;
7887;SDS011;3989;48.810;9.208;2023-05-14T11:37:34;5.43;;;5.13;;
7887;SDS011;3989;48.810;9.208;2023-05-14T11:40:01;5.45;;;5.15;;
7887;SDS011;3989;48.810;9.208;2023-05-14T11:42:28;5.40;;;5.00;;
7887;SDS011;3989;48.810;9.208;2023-05-14T11:44:55;5.68;;;5.25;;
7887;SDS011;3989;48.810;9.208;2023-05-14T11:47:22;5.05;;;4.75;;
7887;SDS011;3989;48.810;9.208;2023-05-14T11:49:48;4.80;;;4.40;;
7887;SDS011;3989;48.810;9.208;2023-05-14T11:52:15;4.70;;;4.40;;
7887;SDS011;3989;48.810;9.208;2023-05-14T11:54:44;4.47;;;4.28;;
7887;SDS011;3989;48.810;9.208;2023-05-14T11:57:12;4.88;;;4.53;;
7887;SDS011;3989;48.810;9.208;2023-05-14T11:59:40;5.00;;;4.70;;
7887;SDS011;3989;48.810;9.208;2023-05-14T12:02:07;5.10;;;4.70;;
7887;SDS011;3989;48.810;9.208;2023-05-14T12:04:36;4.85;;;4.55;;
7887;SDS011;3989;48.810;9.208;2023-05-14T12:07:06;4.72;;;4.43;;
7887;SDS011;3989;48.810;9.208;2023-05-14T12:09:35;4.60;;;4.30;;
7887;SDS011;3989;48.810;9.208;2023-05-14T12:12:08;3.78;;;3.63;;
7887;SDS011;3989;48.810;9.208;2023-05-14T12:14:36;4.32;;;4.13;;
7887;SDS011;3989;48.810;9.208;2023-05-14T12:17:08;4.80;;;4.60;;
7887;SDS011;3989;48.810;9.208;2023-05-14T12:19:38;4.43;;;4.22;;
7887;SDS011;3989;48.810;9.208;2023-05-14T12:22:06;4.25;;;3.90;;
7887;SDS011;3989;48.810;9.208;2023-05-14T12:24:34;4.63;;;4.32;;
7887;SDS011;3989;48.810;9.208;2023-05-14T12:27:01;4.15;;;3.85;;
7887;SDS011;3989;48.810;9.208;2023-05-14T12:29:29;4.53;;;4.22;;
7887;SDS011;3989;48.810;9.208;2023-05-14T12:31:56;4.90;;;4.63;;
7887;SDS011;3989;48.810;9.208;2023-05-14T12:34:23;4.05;;;3.83;;
7887;SDS011;3989;48.810;9.208;2023-05-14T12:36:50;4.15;;;3.95;;
7887;SDS011;3989;48.810;9.208;2023-05-14T12:39:16;4.15;;;3.85;;
7887;SDS011;3989;48.810;9.208;2023-05-14T12:41:43;4.03;;;3.72;;
7887;SDS011;3989;48.810;9.208;2023-05-14T12:44:10;3.65;;;3.45;;
7887;SDS011;3989;48.810;9.208;2023-05-14T12:46:38;3.65;;;3.45;;
7887;SDS011;3989;48.810;9.208;2023-05-14T12:49:05;4.45;;;4.10;;
7887;SDS011;3989;48.810;9.208;2023-05-14T12:51:32;4.00;;;3.70;;
7887;SDS011;3989;48.810;9.208;2023-05-14T12:53:59;3.95;;;3.58;;
7887;SDS011;3989;48.810;9.208;2023-05-14T12:56:25;3.80;;;3.50;;
7887;SDS011;3989;48.810;9.208;2023-05-14T12:58:53;3.75;;;3.58;;
7887;SDS011;3989;48.810;9.208;2023-05-14T13:01:20;4.50;;;4.13;;
7887;SDS011;3989;48.810;9.208;2023-05-14T13:03:49;4.75;;;3.20;;
7887;SDS011;3989;48.810;9.208;2023-05-14T13:06:16;2.70;;;2.53;;
7887;SDS011;3989;48.810;9.208;2023-05-14T13:08:43;3.40;;;3.20;;
7887;SDS011;3989;48.810;9.208;2023-05-14T13:11:10;3.92;;;3.72;;
7887;SDS011;3989;48.810;9.208;2023-05-14T13:13:36;3.38;;;3.28;;
7887;SDS011;3989;48.810;9.208;2023-05-14T13:16:03;3.58;;;3.38;;
7887;SDS011;3989;48.810;9.208;2023-05-14T13:18:30;3.92;;;3.65;;
7887;SDS011;3989;48.810;9.208;2023-05-14T13:20:58;3.78;;;3.58;;
7887;SDS011;3989;48.810;9.208;2023-05-14T13:23:28;3.90;;;3.70;;
7887;SDS011;3989;48.810;9.208;2023-05-14T13:25:54;3.95;;;3.75;;
7887;SDS011;3989;48.810;9.208;2023-05-14T13:28:21;3.90;;;3.70;;
7887;SDS011;3989;48.810;9.208;2023-05-14T13:31:01;3.90;;;3.70;;
7887;SDS011;3989;48.810;9.208;2023-05-14T13:33:29;4.72;;;3.67;;
7887;SDS011;3989;48.810;9.208;2023-05-14T13:35:56;3.78;;;3.58;;
7887;SDS011;3989;48.810;9.208;2023-05-14T13:38:24;3.78;;;3.47;;
7887;SDS011;3989;48.810;9.208;2023-05-14T13:40:51;3.78;;;3.25;;
7887;SDS011;3989;48.810;9.208;2023-05-14T13:43:18;3.20;;;3.10;;
7887;SDS011;3989;48.810;9.208;2023-05-14T13:45:45;3.22;;;3.03;;
7887;SDS011;3989;48.810;9.208;2023-05-14T13:48:11;3.40;;;3.20;;
7887;SDS011;3989;48.810;9.208;2023-05-14T13:50:38;3.50;;;3.30;;
7887;SDS011;3989;48.810;9.208;2023-05-14T13:53:04;3.80;;;3.60;;
7887;SDS011;3989;48.810;9.208;2023-05-14T13:55:32;3.50;;;3.30;;
7887;SDS011;3989;48.810;9.208;2023-05-14T13:57:59;3.35;;;3.05;;
7887;SDS011;3989;48.810;9.208;2023-05-14T14:00:26;4.03;;;3.72;;
7887;SDS011;3989;48.810;9.208;2023-05-14T14:02:53;4.15;;;3.85;;
7887;SDS011;3989;48.810;9.208;2023-05-14T14:05:19;3.55;;;3.35;;
7887;SDS011;3989;48.810;9.208;2023-05-14T14:07:46;3.70;;;3.40;;
7887;SDS011;3989;48.810;9.208;2023-05-14T14:10:13;2.92;;;2.83;;
7887;SDS011;3989;48.810;9.208;2023-05-14T14:12:41;2.97;;;2.88;;
7887;SDS011;3989;48.810;9.208;2023-05-14T14:15:08;3.20;;;2.90;;
7887;SDS011;3989;48.810;9.208;2023-05-14T14:17:35;3.35;;;3.10;;
7887;SDS011;3989;48.810;9.208;2023-05-14T14:20:03;2.58;;;2.42;;
7887;SDS011;3989;48.810;9.208;2023-05-14T14:22:30;3.05;;;2.85;;
7887;SDS011;3989;48.810;9.208;2023-05-14T14:24:57;4.00;;;2.60;;
7887;SDS011;3989;48.810;9.208;2023-05-14T14:27:23;3.20;;;3.00;;
7887;SDS011;3989;48.810;9.208;2023-05-14T14:29:52;2.88;;;2.72;;
7887;SDS011;3989;48.810;9.208;2023-05-14T14:32:20;3.13;;;2.92;;
7887;SDS011;3989;48.810;9.208;2023-05-14T14:34:47;2.88;;;2.78;;
7887;SDS011;3989;48.810;9.208;2023-05-14T14:37:13;3.30;;;3.10;;
7887;SDS011;3989;48.810;9.208;2023-05-14T14:39:40;2.45;;;2.35;;
7887;SDS011;3989;48.810;9.208;2023-05-14T14:42:07;2.70;;;2.60;;
7887;SDS011;3989;48.810;9.208;2023-05-14T14:44:33;3.00;;;2.90;;
7887;SDS011;3989;48.810;9.208;2023-05-14T14:47:01;2.58;;;2.47;;
7887;SDS011;3989;48.810;9.208;2023-05-14T14:49:28;2.70;;;2.60;;
7887;SDS011;3989;48.810;9.208;2023-05-14T14:51:56;2.28;;;2.17;;
7887;SDS011;3989;48.810;9.208;2023-05-14T14:54:22;3.63;;;1.85;;
7887;SDS011;3989;48.810;9.208;2023-05-14T14:56:49;2.40;;;2.30;;
7887;SDS011;3989;48.810;9.208;2023-05-14T14:59:17;2.25;;;2.15;;
7887;SDS011;3989;48.810;9.208;2023-05-14T15:01:44;2.10;;;2.00;;
7887;SDS011;3989;48.810;9.208;2023-05-14T15:04:12;1.92;;;1.83;;
7887;SDS011;3989;48.810;9.208;2023-05-14T15:06:38;2.15;;;2.05;;
7887;SDS011;3989;48.810;9.208;2023-05-14T15:09:06;2.17;;;2.08;;